Time;durP1;ratioP1;P1;durP2;ratioP2;P2;SDS_P1;SDS_P2;PMS_P1;PMS_P2;Temp;Humidity;BMP_temperature;BMP_pressure;BME280_temperature;BME280_humidity;BME280_pressure;Samples;Min_cycle;Max_cycle;Signal;HPM_P1;HPM_P2
2023/08/26 00:00:51;;;;;;;3.55;1.88;;;;;;;17.04;100.00;100069.34;4971993;28;20090;-62
2023/08/26 00:03:17;;;;;;;5.43;2.20;;;;;;;16.89;100.00;100044.44;4972821;28;20038;-63
2023/08/26 00:05:44;;;;;;;4.65;2.17;;;;;;;16.35;100.00;99978.06;4972257;28;20051;-60
2023/08/26 00:08:11;;;;;;;4.72;1.77;;;;;;;16.47;100.00;99992.59;4972461;28;20108;-62
2023/08/26 00:10:37;;;;;;;4.35;2.00;;;;;;;16.15;100.00;99957.31;4972623;28;20125;-63
2023/08/26 00:13:04;;;;;;;4.00;2.28;;;;;;;15.93;100.00;99920.81;4972792;28;20506;-62
2023/08/26 00:15:31;;;;;;;3.95;2.30;;;;;;;14.03;100.00;99644.53;4972553;28;20094;-62
2023/08/26 00:17:58;;;;;;;6.03;2.85;;;;;;;13.85;100.00;99593.94;4972474;28;20121;-62
2023/08/26 00:20:26;;;;;;;3.25;2.30;;;;;;;10.25;100.00;99061.13;4972008;28;20058;-62
2023/08/26 00:22:53;;;;;;;8.00;2.60;;;;;;;6.15;100.00;98409.31;4972302;28;20055;-62
2023/08/26 00:25:20;;;;;;;10.38;2.85;;;;;;;-38.09;100.00;91438.34;4971971;28;20558;-62
2023/08/26 00:27:47;;;;;;;4.53;2.00;;;;;;;-149.70;100.00;75466.84;4954654;28;20051;-62
2023/08/26 00:30:13;;;;;;;5.95;2.08;;;;;;;-149.70;100.00;75466.84;4971495;28;20051;-62
2023/08/26 00:32:41;;;;;;;7.82;2.53;;;;;;;-149.70;100.00;75474.97;4971527;28;20434;-62
2023/08/26 00:35:07;;;;;;;4.22;2.67;;;;;;;-149.70;100.00;75468.88;4971674;28;20086;-62
2023/08/26 00:37:34;;;;;;;5.72;2.92;;;;;;;-149.70;100.00;75481.06;4972456;28;20051;-61
2023/08/26 00:40:01;;;;;;;7.80;2.90;;;;;;;-149.70;100.00;75485.13;4972182;28;20134;-61
2023/08/26 00:42:27;;;;;;;5.25;3.10;;;;;;;-149.70;100.00;75483.09;4971619;28;20553;-62
2023/08/26 00:44:54;;;;;;;4.00;2.65;;;;;;;-149.70;100.00;75477.00;4971212;28;20522;-61
2023/08/26 00:47:20;;;;;;;16.50;9.63;;;;;;;-149.70;100.00;75501.41;4970903;28;20193;-61
2023/08/26 00:49:47;;;;;;;24.75;12.68;;;;;;;-149.70;100.00;75491.25;4970750;28;20043;-62
2023/08/26 00:52:15;;;;;;;5.85;4.05;;;;;;;-149.70;100.00;75464.81;4969839;28;20101;-61
2023/08/26 00:54:41;;;;;;;4.78;3.30;;;;;;;1.88;100.00;97734.22;4971257;28;20129;-62
2023/08/26 00:57:08;;;;;;;6.80;2.40;;;;;;;5.66;100.00;98338.13;4971059;28;20419;-61
2023/08/26 00:59:35;;;;;;;6.38;2.35;;;;;;;7.23;100.00;98590.59;4971657;28;20105;-63
2023/08/26 01:02:02;;;;;;;5.13;2.50;;;;;;;7.35;100.00;98607.72;4971207;28;20042;-62
2023/08/26 01:04:29;;;;;;;7.35;2.53;;;;;;;7.79;100.00;98686.75;4971380;28;20077;-62
2023/08/26 01:07:32;;;;;;;6.50;3.55;;;;;;;8.52;100.00;98799.56;4971665;28;20046;-62
2023/08/26 01:09:59;;;;;;;4.80;2.05;;;;;;;12.67;100.00;99469.75;4970807;28;20145;-61
2023/08/26 01:12:54;;;;;;;6.78;2.58;;;;;;;12.72;100.00;99463.75;4953766;28;20082;-61
2023/08/26 01:15:20;;;;;;;5.72;2.55;;;;;;;13.10;100.00;99544.78;4952607;28;20547;-61
2023/08/26 01:17:47;;;;;;;4.32;2.20;;;;;;;13.11;100.00;99541.91;4951733;28;20043;-62
2023/08/26 01:20:15;;;;;;;5.97;2.30;;;;;;;12.57;100.00;99463.94;4951042;28;20149;-62
2023/08/26 01:22:42;;;;;;;5.45;2.42;;;;;;;12.13;100.00;99395.34;4951764;28;20102;-61
2023/08/26 01:25:10;;;;;;;8.57;2.80;;;;;;;8.78;100.00;98873.78;4950768;28;20126;-62
2023/08/26 01:27:37;;;;;;;6.57;1.90;;;;;;;8.06;100.00;98752.75;4952067;28;20058;-63
2023/08/26 01:30:08;;;;;;;5.80;2.58;;;;;;;10.15;100.00;99074.88;4951970;28;20043;-63
2023/08/26 01:33:02;;;;;;;4.57;2.13;;;;;;;8.48;100.00;98827.69;4951823;28;20094;-62
2023/08/26 01:35:40;;;;;;;5.30;2.05;;;;;;;8.01;100.00;98749.81;4951634;28;20045;-62
2023/08/26 01:38:08;;;;;;;7.70;2.47;;;;;;;-6.88;100.00;96368.16;4951546;28;20047;-65
2023/08/26 01:40:36;;;;;;;7.75;2.70;;;;;;;-5.72;100.00;96536.03;4952095;28;20079;-63
2023/08/26 01:43:05;;;;;;;3.85;2.08;;;;;;;-4.21;100.00;96771.06;4951472;28;20051;-63
2023/08/26 01:45:31;;;;;;;5.57;2.03;;;;;;;-149.70;100.00;75505.47;4951893;28;20047;-62
2023/08/26 01:47:58;;;;;;;5.20;2.42;;;;;;;-149.70;100.00;75521.72;4951383;28;20398;-61
2023/08/26 01:50:27;;;;;;;7.03;2.25;;;;;;;-149.70;100.00;75503.44;4950253;28;20047;-61
2023/08/26 01:52:54;;;;;;;5.50;2.97;;;;;;;-149.70;100.00;75507.50;4950881;28;20460;-62
2023/08/26 01:55:20;;;;;;;4.65;2.10;;;;;;;-149.70;100.00;75501.41;4950834;28;20106;-61
2023/08/26 01:57:47;;;;;;;6.80;2.45;;;;;;;-149.70;100.00;75491.25;4934100;28;20051;-62
2023/08/26 02:00:15;;;;;;;3.85;2.22;;;;;;;-149.70;100.00;75507.50;4960917;28;20069;-62
2023/08/26 02:02:43;;;;;;;7.97;2.58;;;;;;;-149.70;100.00;75507.50;4969286;28;20050;-63
2023/08/26 02:05:09;;;;;;;5.32;2.42;;;;;;;-149.70;100.00;75511.56;4970648;28;20483;-62
2023/08/26 02:07:36;;;;;;;3.15;2.15;;;;;;;-149.70;100.00;75493.28;4970329;28;20080;-63
2023/08/26 02:10:03;;;;;;;9.95;2.65;;;;;;;-149.70;100.00;75485.13;4970770;28;20458;-62
2023/08/26 02:12:29;;;;;;;6.10;2.20;;;;;;;-149.70;100.00;75515.63;4972721;28;20106;-62
2023/08/26 02:14:56;;;;;;;6.88;2.42;;;;;;;-149.70;100.00;75503.44;4974177;28;20101;-62
2023/08/26 02:17:22;;;;;;;8.20;2.70;;;;;;;-149.70;100.00;75507.50;4973865;28;20077;-61
2023/08/26 02:19:49;;;;;;;5.05;2.63;;;;;;;-149.70;100.00;75495.31;4973489;28;20098;-61
2023/08/26 02:22:16;;;;;;;7.80;3.83;;;;;;;-149.70;100.00;75481.06;4972710;28;20053;-61
2023/08/26 02:24:42;;;;;;;7.40;3.22;;;;;;;-149.70;100.00;75487.16;4973314;28;20051;-61
2023/08/26 02:27:09;;;;;;;10.15;2.45;;;;;;;-149.70;100.00;75472.94;4974314;28;20126;-62
2023/08/26 02:29:35;;;;;;;8.48;2.42;;;;;;;-149.70;100.00;75468.88;4974380;28;20042;-62
2023/08/26 02:32:02;;;;;;;7.05;2.78;;;;;;;-149.70;100.00;75470.91;4973176;28;20105;-61
2023/08/26 02:34:28;;;;;;;6.55;2.60;;;;;;;-149.70;100.00;75483.09;4972972;28;20050;-62
2023/08/26 02:36:55;;;;;;;9.90;2.85;;;;;;;-149.70;100.00;75485.13;4973920;28;20042;-61
2023/08/26 02:39:21;;;;;;;10.27;3.00;;;;;;;-149.70;100.00;75470.91;4974048;28;20047;-61
2023/08/26 02:41:48;;;;;;;4.70;2.58;;;;;;;-149.70;100.00;75470.91;4973169;28;20451;-62
2023/08/26 02:44:14;;;;;;;7.32;2.38;;;;;;;-149.70;100.00;75464.81;4972303;28;20062;-61
2023/08/26 02:46:41;;;;;;;6.68;2.55;;;;;;;-149.70;100.00;75468.88;4972927;28;20113;-61
2023/08/26 02:49:08;;;;;;;5.28;2.53;;;;;;;-149.70;100.00;75464.81;4973106;28;20050;-62
2023/08/26 02:51:34;;;;;;;8.25;2.80;;;;;;;-149.70;100.00;75477.00;4973841;28;20380;-62
2023/08/26 02:54:01;;;;;;;6.82;2.65;;;;;;;-149.70;100.00;75479.03;4972977;28;20047;-62
2023/08/26 02:56:28;;;;;;;8.63;3.05;;;;;;;-149.70;100.00;75477.00;4973424;28;20066;-62
2023/08/26 02:58:55;;;;;;;10.63;2.97;;;;;;;-149.70;100.00;75479.03;4971810;28;20137;-61
2023/08/26 03:01:21;;;;;;;7.35;2.40;;;;;;;-149.70;100.00;75483.09;4972357;28;20042;-62
2023/08/26 03:03:48;;;;;;;7.22;2.92;;;;;;;-149.70;100.00;75507.50;4972932;28;20488;-61
2023/08/26 03:06:15;;;;;;;7.53;3.10;;;;;;;-149.70;100.00;75487.16;4973096;28;20491;-61
2023/08/26 03:08:41;;;;;;;5.75;2.60;;;;;;;-149.70;100.00;75477.00;4972713;28;20134;-61
2023/08/26 03:11:09;;;;;;;7.82;2.58;;;;;;;-149.70;100.00;75479.03;4973132;28;20121;-61
2023/08/26 03:13:35;;;;;;;6.75;2.78;;;;;;;-149.70;100.00;75491.25;4973316;28;20051;-62
2023/08/26 03:16:07;;;;;;;9.48;3.47;;;;;;;-149.70;100.00;75511.56;4972959;28;20471;-62
2023/08/26 03:18:34;;;;;;;8.85;2.85;;;;;;;-149.70;100.00;75546.13;4973167;28;20053;-61
2023/08/26 03:21:06;;;;;;;10.77;3.28;;;;;;;-149.70;100.00;75552.22;4972398;28;20139;-62
2023/08/26 03:23:34;;;;;;;8.18;3.10;;;;;;;-149.70;100.00;75540.03;4971953;28;20043;-62
2023/08/26 03:26:02;;;;;;;8.60;2.65;;;;;;;-149.70;100.00;75548.16;4971669;28;20074;-62
2023/08/26 03:28:29;;;;;;;8.73;2.97;;;;;;;-149.70;100.00;75556.28;4972703;28;20047;-62
2023/08/26 03:31:06;;;;;;;4.47;2.78;;;;;;;-149.70;100.00;75574.59;4972555;28;20105;-61
2023/08/26 03:33:34;;;;;;;8.23;3.13;;;;;;;-149.70;100.00;75554.25;4973076;28;20061;-61
2023/08/26 03:36:04;;;;;;;8.50;2.85;;;;;;;-149.70;100.00;75554.25;4971996;28;20450;-63
2023/08/26 03:38:32;;;;;;;8.07;3.83;;;;;;;-149.70;100.00;75568.50;4972017;28;20046;-62
2023/08/26 03:40:58;;;;;;;7.20;3.40;;;;;;;-149.70;100.00;75554.25;4972564;28;20522;-61
2023/08/26 03:43:25;;;;;;;8.05;2.65;;;;;;;-149.70;100.00;75529.88;4972342;28;20094;-62
2023/08/26 03:45:51;;;;;;;7.38;3.13;;;;;;;-149.70;100.00;75499.38;4972183;28;20569;-62
2023/08/26 03:48:18;;;;;;;7.70;2.67;;;;;;;-149.70;100.00;75481.06;4972103;28;20447;-62
2023/08/26 03:50:52;;;;;;;11.52;3.50;;;;;;;-149.70;100.00;75515.63;4971871;28;20053;-63
2023/08/26 03:53:19;;;;;;;8.40;2.90;;;;;;;-149.70;100.00;75523.75;4970732;28;20047;-62
2023/08/26 03:55:46;;;;;;;6.32;2.55;;;;;;;-149.70;100.00;75531.91;4971945;28;20502;-62
2023/08/26 03:58:13;;;;;;;18.42;3.78;;;;;;;-149.70;100.00;75568.50;4972015;28;20137;-61
2023/08/26 04:00:41;;;;;;;10.07;3.40;;;;;;;-149.70;100.00;75564.41;4971500;28;20046;-62
2023/08/26 04:03:08;;;;;;;5.22;2.80;;;;;;;-149.70;100.00;75560.34;4971899;28;20042;-62
2023/08/26 04:05:35;;;;;;;12.27;5.28;;;;;;;-149.70;100.00;75544.09;4972522;28;20047;-63
2023/08/26 04:08:01;;;;;;;9.48;3.45;;;;;;;-149.70;100.00;75566.44;4971747;28;20055;-63
2023/08/26 04:10:28;;;;;;;10.13;3.60;;;;;;;-149.70;100.00;75560.34;4971273;28;20101;-62
2023/08/26 04:13:01;;;;;;;7.60;3.67;;;;;;;-149.70;100.00;75529.88;4971639;28;20051;-62
2023/08/26 04:15:27;;;;;;;9.73;3.45;;;;;;;-149.70;100.00;75535.97;4971353;28;20051;-61
2023/08/26 04:17:54;;;;;;;11.63;4.15;;;;;;;-149.70;100.00;75519.69;4971106;28;20047;-61
2023/08/26 04:20:21;;;;;;;12.43;4.22;;;;;;;-149.70;100.00;75515.63;4972285;28;20126;-61
2023/08/26 04:22:48;;;;;;;11.10;4.00;;;;;;;-149.70;100.00;75544.09;4970750;28;20534;-60
2023/08/26 04:25:14;;;;;;;7.97;4.18;;;;;;;-149.70;100.00;75531.91;4971353;28;20114;-61
2023/08/26 04:27:41;;;;;;;12.07;4.20;;;;;;;-149.70;100.00;75533.94;4971698;28;20467;-60
2023/08/26 04:30:11;;;;;;;8.98;3.83;;;;;;;-149.70;100.00;75540.03;4971529;28;20101;-63
2023/08/26 04:32:38;;;;;;;6.95;3.90;;;;;;;-149.70;100.00;75531.91;4972002;28;20043;-62
2023/08/26 04:35:05;;;;;;;8.75;3.97;;;;;;;-149.70;100.00;75531.91;4971806;28;20399;-62
2023/08/26 04:37:31;;;;;;;11.13;4.18;;;;;;;-149.70;100.00;75538.00;4970734;28;20407;-61
2023/08/26 04:39:58;;;;;;;9.48;3.97;;;;;;;-149.70;100.00;75535.97;4971224;28;20460;-62
2023/08/26 04:42:25;;;;;;;7.63;3.95;;;;;;;-149.70;100.00;75523.75;4971427;28;20755;-61
2023/08/26 04:44:52;;;;;;;7.60;3.80;;;;;;;-149.70;100.00;75527.81;4971408;28;20126;-62
2023/08/26 04:47:22;;;;;;;13.50;3.92;;;;;;;-149.70;100.00;75481.06;4970765;28;20047;-62
2023/08/26 04:49:48;;;;;;;10.48;3.83;;;;;;;-24.35;100.00;93597.75;4971236;28;20109;-61
2023/08/26 04:52:16;;;;;;;7.13;3.72;;;;;;;-149.70;100.00;75499.38;4970936;28;20047;-62
2023/08/26 04:54:42;;;;;;;8.35;3.63;;;;;;;-149.70;100.00;75491.25;4970885;28;20451;-60
2023/08/26 04:57:09;;;;;;;10.05;3.88;;;;;;;-149.70;100.00;75511.56;4970087;28;20055;-61
2023/08/26 04:59:36;;;;;;;15.45;3.90;;;;;;;-149.70;100.00;75511.56;4972040;28;20088;-61
2023/08/26 05:02:06;;;;;;;11.80;4.43;;;;;;;-149.70;100.00;75523.75;4970791;28;20067;-62
2023/08/26 05:04:32;;;;;;;7.80;3.90;;;;;;;-149.70;100.00;75523.75;4970840;28;20066;-61
2023/08/26 05:06:59;;;;;;;8.88;4.35;;;;;;;-149.70;100.00;75523.75;4970882;28;20384;-61
2023/08/26 05:09:28;;;;;;;8.90;4.43;;;;;;;-149.70;100.00;75531.91;4970854;28;20046;-61
2023/08/26 05:11:57;;;;;;;7.80;4.22;;;;;;;-149.70;100.00;75523.75;4970734;28;20426;-62
2023/08/26 05:14:24;;;;;;;7.07;3.92;;;;;;;-149.70;100.00;75531.91;4970685;28;20165;-61
2023/08/26 05:16:51;;;;;;;10.13;4.10;;;;;;;-149.70;100.00;75527.81;4970531;28;20089;-62
2023/08/26 05:19:20;;;;;;;7.85;3.85;;;;;;;-149.70;100.00;75531.91;4971521;28;20050;-62
2023/08/26 05:21:46;;;;;;;9.75;4.25;;;;;;;-149.70;100.00;75540.03;4970562;28;20102;-62
2023/08/26 05:24:14;;;;;;;7.95;4.50;;;;;;;-149.70;100.00;75531.91;4970776;28;20180;-61
2023/08/26 05:26:42;;;;;;;6.43;3.85;;;;;;;-149.70;100.00;75523.75;4970952;28;20043;-62
2023/08/26 05:29:09;;;;;;;9.70;4.35;;;;;;;-149.70;100.00;75548.16;4970749;28;20046;-62
2023/08/26 05:31:35;;;;;;;9.88;4.07;;;;;;;-149.70;100.00;75564.41;4971150;28;20102;-62
2023/08/26 05:34:02;;;;;;;8.52;4.78;;;;;;;-149.70;100.00;75568.50;4970957;28;20121;-62
2023/08/26 05:36:29;;;;;;;8.50;4.53;;;;;;;-149.70;100.00;75578.66;4971097;28;20131;-62
2023/08/26 05:38:55;;;;;;;21.05;5.00;;;;;;;-149.70;100.00;75586.78;4969927;28;20560;-62
2023/08/26 05:41:22;;;;;;;11.13;4.95;;;;;;;-149.70;100.00;75562.38;4971044;28;20472;-61
2023/08/26 05:43:49;;;;;;;16.63;5.25;;;;;;;-149.70;100.00;75568.50;4970698;28;20050;-62
2023/08/26 05:46:16;;;;;;;11.65;5.22;;;;;;;-149.70;100.00;75576.63;4971595;28;20070;-62
2023/08/26 05:48:42;;;;;;;12.93;5.28;;;;;;;-149.70;100.00;75572.56;4974327;28;20049;-62
2023/08/26 05:51:09;;;;;;;7.93;5.03;;;;;;;-149.70;100.00;75570.53;4974131;28;20051;-62
2023/08/26 05:53:36;;;;;;;14.27;5.28;;;;;;;-149.70;100.00;75592.88;4974627;28;20070;-62
2023/08/26 05:56:03;;;;;;;11.65;5.80;;;;;;;-149.70;100.00;75568.50;4974702;28;20042;-61
2023/08/26 05:58:29;;;;;;;10.80;4.78;;;;;;;-149.70;100.00;75580.69;4974266;28;20047;-63
2023/08/26 06:00:56;;;;;;;11.30;5.45;;;;;;;-149.70;100.00;75584.75;4973714;28;20126;-62
2023/08/26 06:03:22;;;;;;;12.70;5.30;;;;;;;-149.70;100.00;75592.88;4973862;28;20475;-62
2023/08/26 06:05:49;;;;;;;8.00;5.75;;;;;;;-149.70;100.00;75586.78;4956480;28;20447;-62
2023/08/26 06:08:16;;;;;;;9.30;5.28;;;;;;;-149.70;100.00;75576.63;4973951;28;20105;-61
2023/08/26 06:10:43;;;;;;;12.73;6.25;;;;;;;-149.70;100.00;75588.81;4974019;28;20071;-61
2023/08/26 06:13:10;;;;;;;14.65;5.82;;;;;;;-149.70;100.00;75617.28;4973981;28;20046;-61
2023/08/26 06:15:37;;;;;;;11.05;5.55;;;;;;;-149.70;100.00;75621.34;4974383;28;20093;-63
2023/08/26 06:18:04;;;;;;;10.60;5.35;;;;;;;-149.70;100.00;75592.88;4974663;28;20050;-65
2023/08/26 06:20:32;;;;;;;8.07;5.13;;;;;;;-149.70;100.00;75566.44;4973539;28;20472;-62
2023/08/26 06:22:59;;;;;;;13.25;5.10;;;;;;;-149.70;100.00;75544.09;4974256;28;20106;-62
2023/08/26 06:25:25;;;;;;;8.10;5.00;;;;;;;-149.70;100.00;75513.59;4974121;28;20042;-63
2023/08/26 06:27:52;;;;;;;11.80;5.03;;;;;;;-149.70;100.00;75495.31;4974159;28;20491;-63
2023/08/26 06:30:18;;;;;;;11.73;4.40;;;;;;;-149.70;100.00;75485.13;4973089;28;20074;-62
2023/08/26 06:32:45;;;;;;;8.30;5.20;;;;;;;-149.70;100.00;75501.41;4973743;28;20511;-62
2023/08/26 06:35:12;;;;;;;8.02;5.57;;;;;;;-149.70;100.00;75523.75;4973342;28;20089;-62
2023/08/26 06:37:38;;;;;;;9.27;5.30;;;;;;;-149.70;100.00;75517.66;4972400;28;20054;-62
2023/08/26 06:40:06;;;;;;;10.50;6.10;;;;;;;-149.70;100.00;75515.63;4974093;28;20056;-64
2023/08/26 06:42:32;;;;;;;12.15;6.25;;;;;;;-149.70;100.00;75531.91;4973538;28;20094;-62
2023/08/26 06:44:59;;;;;;;14.23;5.53;;;;;;;-149.70;100.00;75548.16;4956329;28;20050;-62
2023/08/26 06:47:25;;;;;;;11.07;6.10;;;;;;;-149.70;100.00;75542.06;4973999;28;20488;-63
2023/08/26 06:49:52;;;;;;;8.57;5.50;;;;;;;-149.70;100.00;75550.19;4973453;28;20502;-62
2023/08/26 06:52:18;;;;;;;10.07;5.05;;;;;;;-149.70;100.00;75558.31;4972695;28;20133;-63
2023/08/26 06:54:45;;;;;;;11.90;5.78;;;;;;;-149.70;100.00;75558.31;4973043;28;20442;-62
2023/08/26 06:57:11;;;;;;;10.57;5.72;;;;;;;-149.70;100.00;75556.28;4973873;28;20051;-63
2023/08/26 06:59:38;;;;;;;10.05;5.28;;;;;;;-149.70;100.00;75550.19;4973768;28;20483;-63
2023/08/26 07:02:05;;;;;;;11.52;6.13;;;;;;;-149.70;100.00;75556.28;4974247;28;20117;-62
2023/08/26 07:04:32;;;;;;;11.07;6.15;;;;;;;-149.70;100.00;75568.50;4974145;28;20066;-63
2023/08/26 07:06:59;;;;;;;12.80;6.35;;;;;;;-149.70;100.00;75584.75;4972960;28;20047;-62
2023/08/26 07:09:27;;;;;;;11.45;6.57;;;;;;;-149.70;100.00;75560.34;4973240;28;20051;-62
2023/08/26 07:11:53;;;;;;;12.32;5.82;;;;;;;-149.70;100.00;75552.22;4973380;28;20098;-63
2023/08/26 07:14:20;;;;;;;13.48;6.72;;;;;;;-149.70;100.00;75511.56;4973223;28;20499;-63
2023/08/26 07:16:46;;;;;;;14.25;6.38;;;;;;;-149.70;100.00;75474.97;4973206;28;20452;-62
2023/08/26 07:19:13;;;;;;;10.32;6.45;;;;;;;-149.70;100.00;75479.03;4972491;28;20550;-62
2023/08/26 07:21:39;;;;;;;9.32;5.38;;;;;;;-149.70;100.00;75456.69;4973030;28;20143;-62
2023/08/26 07:24:06;;;;;;;10.55;6.53;;;;;;;-149.70;100.00;75460.75;4973616;28;20499;-63
2023/08/26 07:26:33;;;;;;;7.40;5.53;;;;;;;-149.70;100.00;75454.66;4973391;28;20047;-62
2023/08/26 07:28:59;;;;;;;14.77;5.97;;;;;;;-149.70;100.00;75470.91;4973250;28;20396;-62
2023/08/26 07:31:26;;;;;;;14.43;5.82;;;;;;;-149.70;100.00;75466.84;4972947;28;20069;-62
2023/08/26 07:33:52;;;;;;;8.77;5.95;;;;;;;-149.70;100.00;75470.91;4973102;28;20122;-62
2023/08/26 07:36:19;;;;;;;12.77;5.85;;;;;;;-149.70;100.00;75477.00;4973205;28;20428;-63
2023/08/26 07:38:46;;;;;;;12.32;6.68;;;;;;;-149.70;100.00;75489.22;4972747;28;20487;-63
2023/08/26 07:41:12;;;;;;;13.13;7.72;;;;;;;-149.70;100.00;75503.44;4973042;28;20070;-63
2023/08/26 07:43:39;;;;;;;15.07;6.45;;;;;;;-149.70;100.00;75493.28;4972698;28;20051;-63
2023/08/26 07:46:05;;;;;;;14.80;7.53;;;;;;;-149.70;100.00;75499.38;4973117;28;20058;-63
2023/08/26 07:48:36;;;;;;;16.17;7.63;;;;;;;-149.70;100.00;75499.38;4973041;28;20130;-62
2023/08/26 07:51:03;;;;;;;16.60;7.47;;;;;;;-149.70;100.00;75513.59;4972918;28;20049;-62
2023/08/26 07:53:30;;;;;;;10.70;7.15;;;;;;;-149.70;100.00;75511.56;4972718;28;20101;-63
2023/08/26 07:55:56;;;;;;;11.02;6.85;;;;;;;-149.70;100.00;75521.72;4972595;28;20043;-64
2023/08/26 07:58:23;;;;;;;13.18;7.95;;;;;;;-149.70;100.00;75517.66;4972581;28;20105;-63
2023/08/26 08:00:49;;;;;;;16.90;7.72;;;;;;;-149.70;100.00;75499.38;4972298;28;20179;-61
2023/08/26 08:03:16;;;;;;;12.00;8.18;;;;;;;-149.70;100.00;75497.34;4972344;28;20053;-62
2023/08/26 08:05:43;;;;;;;17.13;8.52;;;;;;;-149.70;100.00;75479.03;4972238;28;20046;-62
2023/08/26 08:08:10;;;;;;;13.90;8.13;;;;;;;-149.70;100.00;75495.31;4972442;28;20074;-63
2023/08/26 08:10:37;;;;;;;15.95;8.05;;;;;;;-149.70;100.00;75501.41;4972288;28;20075;-63
2023/08/26 08:13:04;;;;;;;21.58;9.35;;;;;;;-149.70;100.00;75491.25;4972271;28;20130;-62
2023/08/26 08:15:31;;;;;;;12.75;9.50;;;;;;;-149.70;100.00;75505.47;4972314;28;20042;-62
2023/08/26 08:17:58;;;;;;;13.27;9.35;;;;;;;-149.70;100.00;75509.53;4972164;28;20055;-62
2023/08/26 08:20:25;;;;;;;14.68;9.48;;;;;;;-149.70;100.00;75511.56;4972174;28;20050;-63
2023/08/26 08:22:52;;;;;;;12.75;9.20;;;;;;;-149.70;100.00;75472.94;4971947;28;20097;-62
2023/08/26 08:25:19;;;;;;;12.70;9.18;;;;;;;-149.70;100.00;75477.00;4971717;28;20053;-62
2023/08/26 08:27:46;;;;;;;11.52;8.27;;;;;;;-149.70;100.00;75456.69;4972353;28;20047;-62
2023/08/26 08:30:13;;;;;;;12.55;8.38;;;;;;;-149.70;100.00;75426.19;4972120;28;20467;-63
2023/08/26 08:32:39;;;;;;;9.68;7.50;;;;;;;-149.70;100.00;75405.84;4972009;28;20070;-63
2023/08/26 08:35:07;;;;;;;13.27;7.93;;;;;;;-149.70;100.00;75395.69;4972570;28;20130;-63
2023/08/26 08:37:34;;;;;;;13.93;8.85;;;;;;;-149.70;100.00;75393.66;4972067;28;20046;-62
2023/08/26 08:40:00;;;;;;;11.93;8.00;;;;;;;-149.70;100.00;75377.41;4971978;28;20050;-63
2023/08/26 08:42:31;;;;;;;14.55;9.48;;;;;;;-149.70;100.00;75367.25;4972343;28;20062;-63
2023/08/26 08:44:57;;;;;;;15.43;10.75;;;;;;;-149.70;100.00;75375.38;4971585;28;20561;-63
2023/08/26 08:47:25;;;;;;;10.25;7.35;;;;;;;-149.70;100.00;75379.44;4971465;28;20101;-63
2023/08/26 08:49:53;;;;;;;11.88;7.35;;;;;;;-149.70;100.00;75379.44;4971655;28;20400;-63
2023/08/26 08:52:21;;;;;;;13.82;6.93;;;;;;;-149.70;100.00;75357.06;4971121;28;20419;-63
2023/08/26 08:54:48;;;;;;;7.95;6.18;;;;;;;-149.70;100.00;75336.75;4971749;28;20066;-61
2023/08/26 08:57:16;;;;;;;13.98;6.53;;;;;;;-149.70;100.00;75328.63;4971679;28;20051;-61
2023/08/26 08:59:45;;;;;;;18.15;11.35;;;;;;;-149.70;100.00;75359.09;4971167;28;20051;-61
2023/08/26 09:02:12;;;;;;;8.25;6.10;;;;;;;-149.70;100.00;75332.69;4970627;28;20046;-63
2023/08/26 09:04:40;;;;;;;9.98;6.55;;;;;;;-149.70;100.00;75340.81;4971188;28;20125;-62
2023/08/26 09:07:09;;;;;;;9.45;4.95;;;;;;;13.18;100.00;99331.88;4971786;28;20051;-61
2023/08/26 09:09:37;;;;;;;7.53;4.70;;;;;;;18.18;100.00;100080.91;4971672;28;20483;-62
2023/08/26 09:12:21;;;;;;;13.75;4.90;;;;;;;19.87;100.00;100218.78;4970537;28;20121;-61
2023/08/26 09:14:48;;;;;;;7.40;4.18;;;;;;;20.90;100.00;100241.88;4971590;28;20074;-61
2023/08/26 09:17:19;;;;;;;5.97;4.00;;;;;;;21.21;100.00;100251.56;4971167;28;20561;-63
2023/08/26 09:19:59;;;;;;;8.98;4.03;;;;;;;21.01;100.00;100268.31;4971433;28;20113;-63
2023/08/26 09:22:28;;;;;;;8.50;3.55;;;;;;;20.30;100.00;100264.78;4975339;28;20055;-63
2023/08/26 09:24:56;;;;;;;6.10;3.00;;;;;;;20.01;100.00;100257.53;4974962;28;20443;-63
2023/08/26 09:27:23;;;;;;;4.53;3.40;;;;;;;19.94;100.00;100250.28;4975168;28;20062;-63
2023/08/26 09:29:51;;;;;;;9.80;3.63;;;;;;;19.82;100.00;100254.03;4975336;28;20498;-63
2023/08/26 09:32:34;;;;;;;5.85;3.15;;;;;;;20.07;100.00;100251.13;4975295;28;20050;-63
2023/08/26 09:35:15;;;;;;;6.25;3.40;;;;;;;21.03;100.00;100270.78;4975165;28;20050;-64
2023/08/26 09:37:48;;;;;;;7.53;3.42;;;;;;;21.26;100.00;100281.69;4975135;28;20047;-63
2023/08/26 09:40:17;;;;;;;4.68;3.17;;;;;;;23.76;100.00;100294.91;4974967;28;20054;-63
2023/08/26 09:42:44;;;;;;;5.95;3.80;;;;;;;25.15;100.00;100291.00;4974959;28;20047;-64
2023/08/26 09:45:14;;;;;;;6.65;2.90;;;;;;;26.84;100.00;100295.94;4974942;28;20073;-63
2023/08/26 09:47:41;;;;;;;6.28;3.08;;;;;;;26.78;100.00;100304.19;4975092;28;20095;-64
2023/08/26 09:50:08;;;;;;;10.38;4.25;;;;;;;25.08;100.00;100295.94;4975343;28;20145;-64
2023/08/26 09:52:43;;;;;;;10.68;4.80;;;;;;;24.82;100.00;100299.59;4974923;28;20042;-63
2023/08/26 09:55:10;;;;;;;7.25;4.07;;;;;;;23.78;100.00;100307.25;4974516;28;20510;-63
2023/08/26 09:57:37;;;;;;;9.10;4.72;;;;;;;23.92;100.00;100292.06;4975349;28;20081;-64
2023/08/26 10:00:05;;;;;;;13.43;5.45;;;;;;;23.52;100.00;100300.63;4974810;28;20042;-63
2023/08/26 10:02:32;;;;;;;9.07;6.00;;;;;;;24.75;100.00;100288.03;4957591;28;20046;-63
2023/08/26 10:05:05;;;;;;;6.68;4.40;;;;;;;26.74;100.00;100296.75;4974443;28;20046;-63
2023/08/26 10:07:33;;;;;;;7.28;5.40;;;;;;;28.36;84.75;100297.00;4974512;28;20070;-63
2023/08/26 10:10:13;;;;;;;6.80;4.40;;;;;;;30.05;66.39;100301.38;4974595;28;20123;-63
2023/08/26 10:12:42;;;;;;;8.73;5.32;;;;;;;30.16;63.28;100296.47;4974428;28;20113;-63
2023/08/26 10:15:12;;;;;;;10.60;6.25;;;;;;;30.91;57.33;100305.66;4974015;28;20557;-67
2023/08/26 10:17:43;;;;;;;6.60;4.70;;;;;;;31.44;54.37;100299.63;4974058;28;20504;-63
2023/08/26 10:20:11;;;;;;;9.37;4.93;;;;;;;31.22;53.95;100301.16;4974543;28;20046;-63
2023/08/26 10:22:38;;;;;;;7.25;4.50;;;;;;;30.23;56.70;100301.63;4974923;28;20126;-62
2023/08/26 10:25:07;;;;;;;8.63;5.13;;;;;;;28.52;67.98;100291.38;4974445;28;20133;-63
2023/08/26 10:27:35;;;;;;;7.32;5.20;;;;;;;27.87;73.25;100297.16;4974503;28;20055;-63
2023/08/26 10:30:03;;;;;;;7.93;5.78;;;;;;;27.03;83.97;100299.69;4974266;28;20074;-63
2023/08/26 10:32:29;;;;;;;8.50;5.57;;;;;;;25.26;100.00;100299.28;4973563;28;20046;-64
2023/08/26 10:34:59;;;;;;;8.77;5.72;;;;;;;25.21;100.00;100302.84;4974256;28;20454;-64
2023/08/26 10:37:27;;;;;;;8.65;5.88;;;;;;;25.31;100.00;100302.06;4973732;28;20074;-63
2023/08/26 10:39:55;;;;;;;12.52;6.05;;;;;;;24.78;100.00;100296.56;4974155;28;20121;-63
2023/08/26 10:42:23;;;;;;;9.48;6.53;;;;;;;23.91;100.00;100293.13;4956813;28;20105;-62
2023/08/26 10:44:57;;;;;;;12.25;6.32;;;;;;;23.84;100.00;100300.72;4974178;28;20093;-63
2023/08/26 10:47:51;;;;;;;12.52;6.70;;;;;;;23.54;100.00;100290.25;4973976;28;20073;-63
2023/08/26 10:50:26;;;;;;;10.90;6.20;;;;;;;23.13;100.00;100286.22;4973664;28;20491;-63
2023/08/26 10:52:58;;;;;;;12.40;6.57;;;;;;;23.29;100.00;100285.28;4973463;28;20047;-64
2023/08/26 10:55:32;;;;;;;12.18;6.30;;;;;;;23.91;100.00;100275.84;4975585;28;20043;-63
2023/08/26 10:58:08;;;;;;;15.23;5.93;;;;;;;24.20;100.00;100276.41;4973573;28;20133;-63
2023/08/26 11:00:36;;;;;;;9.43;5.85;;;;;;;24.36;100.00;100275.41;4973883;28;20039;-63
2023/08/26 11:03:05;;;;;;;9.40;5.53;;;;;;;24.66;100.00;100279.50;4956546;28;20062;-63
2023/08/26 11:05:36;;;;;;;11.18;6.22;;;;;;;24.30;100.00;100278.38;4973969;28;20133;-64
2023/08/26 11:08:05;;;;;;;14.18;6.03;;;;;;;24.52;100.00;100270.91;4973390;28;20101;-64
2023/08/26 11:10:41;;;;;;;10.98;6.03;;;;;;;24.82;100.00;100277.63;4973576;28;20483;-63
2023/08/26 11:13:09;;;;;;;11.35;5.47;;;;;;;24.92;100.00;100270.31;4973630;28;20129;-64